Front Circassia — V7JX6 — position and weather

sailwx.info

Track history (hours):
 
Tides and Currents Weather Stations Pressure Air Temp Water Temp Dewpoint Dewpoint Depression Visibility Wind Speed Wind Dir Waves Ship Positions

Front Circassia

Last reported at 2014-Dec-15 05:30 UTC. Time now 2014-Dec-23 03:42 UTC.
Position N 24°46' E 119°19'.

Length 333 m; draft 10.7 m.

Type: Tanker. MMSI: 538002584.

Date/timePositionNaut miles runAvg speedWind from/ knotsBaromVisibWave heightAir tempDewpointWater temp
2014-Dec-15 05:30N 24°46' E 119°19'9 9.4
2014-Dec-15 04:33N 24°47' E 119°09'9 8.9
2014-Dec-15 03:33N 24°55' E 119°05'7 7.5
2014-Dec-15 02:34N 25°03' E 119°02'1 0.1
2014-Dec-14 22:19N 25°03' E 119°02'0 0.0
2014-Dec-14 21:30N 25°03' E 119°02'0 0.0
2014-Dec-14 20:31N 25°03' E 119°02'0 0.0
2014-Dec-14 19:31N 25°03' E 119°02'0 0.0
2014-Dec-14 18:31N 25°03' E 119°02'0 0.0
2014-Dec-14 17:31N 25°03' E 119°02'0 0.0
2014-Dec-14 16:31N 25°03' E 119°02'0 0.0
2014-Dec-14 15:31N 25°03' E 119°02'0 0.0
2014-Dec-14 14:25N 25°03' E 119°02'0 0.0
2014-Dec-13 22:21N 25°03' E 119°02'0 0.0
2014-Dec-13 21:33N 25°03' E 119°02'0 0.0
2014-Dec-13 20:34N 25°03' E 119°02'0 0.0
2014-Dec-13 19:33N 25°03' E 119°02'0 0.0
2014-Dec-13 18:33N 25°03' E 119°02'0 0.0
2014-Dec-13 17:33N 25°03' E 119°02'0 0.0
2014-Dec-13 16:33N 25°03' E 119°02'0 0.0
2014-Dec-13 15:33N 25°03' E 119°02'0 0.0
2014-Dec-13 14:33N 25°03' E 119°02'0 0.0
2014-Dec-12 22:24N 25°03' E 119°02'0 0.0
2014-Dec-12 21:30N 25°03' E 119°02'0 0.0
2014-Dec-12 20:30N 25°03' E 119°02'0 0.0
2014-Dec-12 19:30N 25°03' E 119°02'0 0.0
2014-Dec-12 18:30N 25°03' E 119°02'0 0.0
2014-Dec-12 17:30N 25°03' E 119°02'0 0.0
2014-Dec-12 16:30N 25°03' E 119°02'0 0.0
2014-Dec-12 15:30N 25°03' E 119°02'0 0.0
2014-Dec-12 14:30N 25°03' E 119°02'0 0.0
2014-Dec-11 22:30N 25°03' E 119°02'0 0.0
2014-Dec-11 21:33N 25°03' E 119°02'0 0.0
2014-Dec-11 20:27N 25°03' E 119°02'0 0.0
2014-Dec-11 19:33N 25°03' E 119°02'0 0.0
2014-Dec-11 18:33N 25°03' E 119°02'0 0.0
2014-Dec-11 17:33N 25°03' E 119°02'0 0.0
2014-Dec-11 16:33N 25°03' E 119°02'0 0.0
2014-Dec-11 15:33N 25°03' E 119°02'0 0.0
2014-Dec-11 14:30N 25°03' E 119°02'0 0.0
2014-Dec-11 07:32N 25°03' E 119°02'3 2.8
2014-Dec-11 06:33N 25°00' E 119°03'7 7.2
2014-Dec-11 05:33N 24°53' E 119°01'2 2.1
2014-Dec-11 04:33N 24°51' E 119°01'4 3.8
2014-Dec-11 03:33N 24°47' E 119°01'4 4.0
2014-Dec-11 02:33N 24°44' E 118°60'0 0.3
2014-Dec-11 01:32N 24°43' E 118°59'0 0.1
2014-Dec-11 00:32N 24°43' E 118°59'0 0.0
2014-Dec-10 23:32N 24°43' E 118°59'0 0.1
2014-Dec-10 22:32N 24°43' E 118°60'0 0.0
2014-Dec-10 21:31N 24°43' E 118°60'0 0.0
2014-Dec-10 20:32N 24°43' E 118°60'0 0.0
2014-Dec-10 19:25N 24°43' E 118°59'0 0.0
2014-Dec-10 18:32N 24°43' E 118°59'0 0.0
2014-Dec-10 17:32N 24°43' E 118°59'0 0.1
2014-Dec-10 16:31N 24°43' E 118°59'0 0.1
2014-Dec-10 15:31N 24°43' E 118°59'0 0.1
2014-Dec-10 14:32N 24°43' E 118°59'0 0.0
2014-Dec-10 13:32N 24°44' E 118°59'0 0.2
2014-Dec-10 12:31N 24°43' E 118°59'0 0.1
2014-Dec-10 11:31N 24°43' E 118°60'0 0.0
2014-Dec-10 10:31N 24°43' E 118°60'0 0.0
2014-Dec-10 09:31N 24°43' E 118°60'0 0.1
2014-Dec-10 08:32N 24°43' E 118°59'0 0.0
2014-Dec-10 07:32N 24°43' E 118°59'0 0.0
2014-Dec-10 06:31N 24°43' E 118°59'0 0.0
2014-Dec-10 05:32N 24°43' E 118°59'0 0.0
2014-Dec-10 04:25N 24°43' E 118°59'0 0.1
2014-Dec-10 03:32N 24°43' E 118°59'0 0.0
2014-Dec-10 02:31N 24°43' E 118°59'0 0.1
2014-Dec-10 01:32N 24°43' E 118°59'0 0.1
2014-Dec-10 00:31N 24°43' E 118°59'0 0.1
2014-Dec-09 23:31N 24°43' E 118°59'0 0.1
2014-Dec-09 22:31N 24°43' E 118°60'0 0.0
2014-Dec-09 21:31N 24°43' E 118°60'0 0.0
2014-Dec-09 20:31N 24°43' E 118°60'0 0.1
2014-Dec-09 19:31N 24°43' E 118°59'0 0.0
2014-Dec-09 18:25N 24°43' E 118°59'0 0.1
2014-Dec-09 17:32N 24°43' E 118°59'0 0.0
2014-Dec-09 16:31N 24°43' E 118°59'0 0.0
2014-Dec-09 15:31N 24°43' E 118°59'0 0.0
2014-Dec-09 14:31N 24°43' E 118°59'0 0.0
2014-Dec-09 13:19N 24°43' E 118°59'0 0.0
2014-Dec-09 12:31N 24°43' E 118°59'0 0.1
2014-Dec-09 11:31N 24°43' E 118°59'0 0.0
2014-Dec-09 10:31N 24°43' E 118°59'0 0.1
2014-Dec-09 09:31N 24°43' E 118°60'0 0.1
2014-Dec-09 08:31N 24°43' E 118°59'0 0.0
2014-Dec-09 07:31N 24°43' E 118°59'1 0.7
2014-Dec-09 06:33N 24°43' E 118°59'3 2.5
2014-Dec-09 05:33N 24°41' E 118°57'3 2.6
2014-Dec-09 04:33N 24°39' E 118°56'2 2.4
2014-Dec-09 03:33N 24°39' E 118°58'2 2.2
2014-Dec-09 02:33N 24°40' E 119°01'2 2.0
2014-Dec-09 01:33N 24°40' E 119°03'2 1.7
2014-Dec-09 00:33N 24°40' E 119°05'0 0.4
2014-Dec-08 23:33N 24°40' E 119°05'1 1.2
2014-Dec-08 22:33N 24°41' E 119°05'5 5.4
2014-Dec-08 21:33N 24°44' E 119°10'  
Track history (hours):
 
Tides and Currents Weather Stations Pressure Air Temp Water Temp Dewpoint Dewpoint Depression Visibility Wind Speed Wind Dir Waves Ship Positions

Front Circassia

Last reported at 2014-Dec-15 05:30 UTC. Time now 2014-Dec-23 03:42 UTC.
Position N 24°46' E 119°19'.

Length 333 m; draft 10.7 m.

Type: Tanker. MMSI: 538002584.

Date/timePositionNaut miles runAvg speedWind from/ knotsBaromVisibWave heightAir tempDewpointWater temp
2014-Dec-15 05:30N 24°46' E 119°19'9 9.4
2014-Dec-15 04:33N 24°47' E 119°09'9 8.9
2014-Dec-15 03:33N 24°55' E 119°05'7 7.5
2014-Dec-15 02:34N 25°03' E 119°02'1 0.1
2014-Dec-14 22:19N 25°03' E 119°02'0 0.0
2014-Dec-14 21:30N 25°03' E 119°02'0 0.0
2014-Dec-14 20:31N 25°03' E 119°02'0 0.0
2014-Dec-14 19:31N 25°03' E 119°02'0 0.0
2014-Dec-14 18:31N 25°03' E 119°02'0 0.0
2014-Dec-14 17:31N 25°03' E 119°02'0 0.0
2014-Dec-14 16:31N 25°03' E 119°02'0 0.0
2014-Dec-14 15:31N 25°03' E 119°02'0 0.0
2014-Dec-14 14:25N 25°03' E 119°02'0 0.0
2014-Dec-13 22:21N 25°03' E 119°02'0 0.0
2014-Dec-13 21:33N 25°03' E 119°02'0 0.0
2014-Dec-13 20:34N 25°03' E 119°02'0 0.0
2014-Dec-13 19:33N 25°03' E 119°02'0 0.0
2014-Dec-13 18:33N 25°03' E 119°02'0 0.0
2014-Dec-13 17:33N 25°03' E 119°02'0 0.0
2014-Dec-13 16:33N 25°03' E 119°02'0 0.0
2014-Dec-13 15:33N 25°03' E 119°02'0 0.0
2014-Dec-13 14:33N 25°03' E 119°02'0 0.0
2014-Dec-12 22:24N 25°03' E 119°02'0 0.0
2014-Dec-12 21:30N 25°03' E 119°02'0 0.0
2014-Dec-12 20:30N 25°03' E 119°02'0 0.0
2014-Dec-12 19:30N 25°03' E 119°02'0 0.0
2014-Dec-12 18:30N 25°03' E 119°02'0 0.0
2014-Dec-12 17:30N 25°03' E 119°02'0 0.0
2014-Dec-12 16:30N 25°03' E 119°02'0 0.0
2014-Dec-12 15:30N 25°03' E 119°02'0 0.0
2014-Dec-12 14:30N 25°03' E 119°02'0 0.0
2014-Dec-11 22:30N 25°03' E 119°02'0 0.0
2014-Dec-11 21:33N 25°03' E 119°02'0 0.0
2014-Dec-11 20:27N 25°03' E 119°02'0 0.0
2014-Dec-11 19:33N 25°03' E 119°02'0 0.0
2014-Dec-11 18:33N 25°03' E 119°02'0 0.0
2014-Dec-11 17:33N 25°03' E 119°02'0 0.0
2014-Dec-11 16:33N 25°03' E 119°02'0 0.0
2014-Dec-11 15:33N 25°03' E 119°02'0 0.0
2014-Dec-11 14:30N 25°03' E 119°02'0 0.0
2014-Dec-11 07:32N 25°03' E 119°02'3 2.8
2014-Dec-11 06:33N 25°00' E 119°03'7 7.2
2014-Dec-11 05:33N 24°53' E 119°01'2 2.1
2014-Dec-11 04:33N 24°51' E 119°01'4 3.8
2014-Dec-11 03:33N 24°47' E 119°01'4 4.0
2014-Dec-11 02:33N 24°44' E 118°60'0 0.3
2014-Dec-11 01:32N 24°43' E 118°59'0 0.1
2014-Dec-11 00:32N 24°43' E 118°59'0 0.0
2014-Dec-10 23:32N 24°43' E 118°59'0 0.1
2014-Dec-10 22:32N 24°43' E 118°60'0 0.0
2014-Dec-10 21:31N 24°43' E 118°60'0 0.0
2014-Dec-10 20:32N 24°43' E 118°60'0 0.0
2014-Dec-10 19:25N 24°43' E 118°59'0 0.0
2014-Dec-10 18:32N 24°43' E 118°59'0 0.0
2014-Dec-10 17:32N 24°43' E 118°59'0 0.1
2014-Dec-10 16:31N 24°43' E 118°59'0 0.1
2014-Dec-10 15:31N 24°43' E 118°59'0 0.1
2014-Dec-10 14:32N 24°43' E 118°59'0 0.0
2014-Dec-10 13:32N 24°44' E 118°59'0 0.2
2014-Dec-10 12:31N 24°43' E 118°59'0 0.1
2014-Dec-10 11:31N 24°43' E 118°60'0 0.0
2014-Dec-10 10:31N 24°43' E 118°60'0 0.0
2014-Dec-10 09:31N 24°43' E 118°60'0 0.1
2014-Dec-10 08:32N 24°43' E 118°59'0 0.0
2014-Dec-10 07:32N 24°43' E 118°59'0 0.0
2014-Dec-10 06:31N 24°43' E 118°59'0 0.0
2014-Dec-10 05:32N 24°43' E 118°59'0 0.0
2014-Dec-10 04:25N 24°43' E 118°59'0 0.1
2014-Dec-10 03:32N 24°43' E 118°59'0 0.0
2014-Dec-10 02:31N 24°43' E 118°59'0 0.1
2014-Dec-10 01:32N 24°43' E 118°59'0 0.1
2014-Dec-10 00:31N 24°43' E 118°59'0 0.1
2014-Dec-09 23:31N 24°43' E 118°59'0 0.1
2014-Dec-09 22:31N 24°43' E 118°60'0 0.0
2014-Dec-09 21:31N 24°43' E 118°60'0 0.0
2014-Dec-09 20:31N 24°43' E 118°60'0 0.1
2014-Dec-09 19:31N 24°43' E 118°59'0 0.0
2014-Dec-09 18:25N 24°43' E 118°59'0 0.1
2014-Dec-09 17:32N 24°43' E 118°59'0 0.0
2014-Dec-09 16:31N 24°43' E 118°59'0 0.0
2014-Dec-09 15:31N 24°43' E 118°59'0 0.0
2014-Dec-09 14:31N 24°43' E 118°59'0 0.0
2014-Dec-09 13:19N 24°43' E 118°59'0 0.0
2014-Dec-09 12:31N 24°43' E 118°59'0 0.1
2014-Dec-09 11:31N 24°43' E 118°59'0 0.0
2014-Dec-09 10:31N 24°43' E 118°59'0 0.1
2014-Dec-09 09:31N 24°43' E 118°60'0 0.1
2014-Dec-09 08:31N 24°43' E 118°59'0 0.0
2014-Dec-09 07:31N 24°43' E 118°59'1 0.7
2014-Dec-09 06:33N 24°43' E 118°59'3 2.5
2014-Dec-09 05:33N 24°41' E 118°57'3 2.6
2014-Dec-09 04:33N 24°39' E 118°56'2 2.4
2014-Dec-09 03:33N 24°39' E 118°58'2 2.2
2014-Dec-09 02:33N 24°40' E 119°01'2 2.0
2014-Dec-09 01:33N 24°40' E 119°03'2 1.7
2014-Dec-09 00:33N 24°40' E 119°05'0 0.4
2014-Dec-08 23:33N 24°40' E 119°05'1 1.2
2014-Dec-08 22:33N 24°41' E 119°05'5 5.4
2014-Dec-08 21:33N 24°44' E 119°10'  

Dump ship's entire track history